Terminal Aerodrome Forecast
Issued by NWS Portland, OR

Home | Current Version | Previous Version | Text Only | Print | Product List | Glossary On
Versions: 1 2 3 4 5 6 7 8 9 10 11 12 13 14 15 16 17 18 19 20 21 22 23 24 25 26
000
FTUS46 KPQR 202334
TAFHIO
TAF
KHIO 202334Z 2100/2124 34005KT P6SM SKC
     FM210600 29005KT P6SM BKN250
     FM211500 26004KT P6SM OVC020
     FM211800 26004KT P6SM OVC025
     FM211900 31007KT P6SM OVC050=

USA.gov is the U.S. government's official web portal to all federal, state and local government web resources and services.